createdAt,value
2023-12-09T00:04:34.859Z,6.00
2023-12-09T00:09:37.563Z,6.13
2023-12-09T00:14:40.417Z,6.07
2023-12-09T00:19:43.171Z,6.10
2023-12-09T00:24:45.888Z,6.04
2023-12-09T00:29:48.567Z,6.04
2023-12-09T00:34:51.681Z,6.01
2023-12-09T00:39:54.335Z,6.07
2023-12-09T00:44:56.954Z,6.06
2023-12-09T00:49:59.573Z,6.07
2023-12-09T00:55:02.687Z,6.05
2023-12-09T01:00:06.333Z,5.92
2023-12-09T01:05:10.834Z,5.88
2023-12-09T01:10:13.560Z,5.82
2023-12-09T01:15:16.688Z,5.81
2023-12-09T01:20:20.113Z,5.83
2023-12-09T01:25:22.793Z,5.89
2023-12-09T01:30:25.361Z,5.92
2023-12-09T01:35:28.529Z,5.99
2023-12-09T01:40:31.360Z,6.02
2023-12-09T01:45:34.391Z,6.15
2023-12-09T01:50:37.452Z,6.03
2023-12-09T01:55:42.949Z,6.02
2023-12-09T02:00:46.055Z,5.93
2023-12-09T02:05:48.833Z,5.91
2023-12-09T02:11:18.711Z,5.87
2023-12-09T02:16:31.238Z,5.97
2023-12-09T02:22:02.749Z,6.01
2023-12-09T02:27:16.201Z,6.07
2023-12-09T02:32:22.614Z,6.13
2023-12-09T02:37:28.233Z,6.12
2023-12-09T02:42:33.070Z,6.13
2023-12-09T02:47:35.946Z,6.19
2023-12-09T02:52:38.587Z,6.31
2023-12-09T02:57:41.332Z,6.28
2023-12-09T03:02:43.915Z,6.26
2023-12-09T03:07:47.093Z,6.23
2023-12-09T03:12:49.652Z,6.20
2023-12-09T03:17:52.321Z,6.23
2023-12-09T03:22:55.743Z,6.20
2023-12-09T03:28:01.247Z,6.25
2023-12-09T03:33:04.311Z,6.30
2023-12-09T03:38:07.326Z,6.32
2023-12-09T03:43:11.109Z,6.34
2023-12-09T03:48:14.012Z,6.40
2023-12-09T03:53:16.783Z,6.45
2023-12-09T03:58:19.513Z,6.52
2023-12-09T04:03:22.239Z,6.57
2023-12-09T04:08:24.911Z,6.60
2023-12-09T04:13:28.607Z,6.59
2023-12-09T04:18:31.781Z,6.54
2023-12-09T04:23:34.465Z,6.65
2023-12-09T04:28:37.261Z,6.61
2023-12-09T04:33:40.060Z,6.63
2023-12-09T04:38:42.831Z,6.61
2023-12-09T04:43:45.460Z,6.46
2023-12-09T04:48:49.011Z,6.30
2023-12-09T04:53:52.243Z,6.10
2023-12-09T04:58:55.367Z,6.09
2023-12-09T05:03:58.496Z,6.12
2023-12-09T05:09:01.288Z,6.07
2023-12-09T05:14:04.095Z,6.20
2023-12-09T05:19:10.351Z,6.24
2023-12-09T05:24:13.580Z,6.33
2023-12-09T05:29:17.293Z,6.24
2023-12-09T05:34:20.140Z,6.30
2023-12-09T05:39:22.967Z,6.44
2023-12-09T05:44:26.246Z,6.51
2023-12-09T05:49:29.127Z,6.60
2023-12-09T05:54:33.646Z,6.75
2023-12-09T05:59:36.263Z,6.98
2023-12-09T06:04:40.073Z,6.86
2023-12-09T06:09:42.777Z,7.12
2023-12-09T06:14:45.877Z,7.15
2023-12-09T06:19:48.534Z,7.12
2023-12-09T06:24:52.916Z,7.12
2023-12-09T06:29:56.147Z,7.19
2023-12-09T06:34:58.760Z,7.13
2023-12-09T06:40:03.770Z,6.99
2023-12-09T06:45:07.556Z,7.06
2023-12-09T06:50:10.620Z,7.02
2023-12-09T06:55:13.863Z,6.96
2023-12-09T07:00:17.893Z,7.02
2023-12-09T07:05:22.261Z,6.96
2023-12-09T07:10:25.412Z,6.95
2023-12-09T07:15:29.291Z,6.91
2023-12-09T07:20:32.088Z,6.91
2023-12-09T07:25:34.831Z,6.90
2023-12-09T07:30:38.075Z,7.01
2023-12-09T07:35:45.809Z,7.00
2023-12-09T07:40:50.630Z,6.95
2023-12-09T07:45:54.443Z,6.89
2023-12-09T07:50:57.182Z,6.93
2023-12-09T07:56:00.022Z,6.91
2023-12-09T08:01:05.137Z,6.84
2023-12-09T08:06:10.901Z,6.89
2023-12-09T08:11:13.826Z,6.87
2023-12-09T08:16:17.019Z,6.81
2023-12-09T08:21:47.371Z,6.91
2023-12-09T08:26:50.440Z,6.86
2023-12-09T08:31:53.446Z,6.94
2023-12-09T08:36:56.583Z,6.95
2023-12-09T08:41:59.439Z,6.92
2023-12-09T08:47:02.288Z,6.95
2023-12-09T08:52:06.321Z,6.75
2023-12-09T08:57:09.448Z,6.98
2023-12-09T09:02:13.697Z,7.02
2023-12-09T09:07:17.039Z,7.12
2023-12-09T09:12:19.748Z,7.05
2023-12-09T09:17:22.979Z,7.09
2023-12-09T09:22:26.028Z,7.18
2023-12-09T09:27:29.043Z,7.16
2023-12-09T09:32:33.489Z,7.31
2023-12-09T09:37:37.461Z,7.20
2023-12-09T09:42:43.560Z,7.07
2023-12-09T09:47:50.166Z,7.06
2023-12-09T09:52:55.466Z,7.02
2023-12-09T09:57:59.036Z,6.99
2023-12-09T10:03:04.390Z,7.01
2023-12-09T10:08:08.263Z,6.99
2023-12-09T10:13:11.076Z,6.95
2023-12-09T10:18:17.948Z,6.98
2023-12-09T10:23:21.941Z,6.82
2023-12-09T10:28:25.512Z,6.88
2023-12-09T10:33:39.992Z,6.81
2023-12-09T10:38:46.426Z,6.74
2023-12-09T10:43:49.683Z,6.75
2023-12-09T10:48:53.101Z,6.74
2023-12-09T10:53:56.373Z,6.71
2023-12-09T10:59:01.331Z,6.67
2023-12-09T11:04:07.378Z,6.73
2023-12-09T11:09:11.981Z,6.71
2023-12-09T11:14:17.530Z,6.73
2023-12-09T11:19:24.242Z,6.68
2023-12-09T11:29:35.320Z,6.33
2023-12-09T11:34:58.147Z,6.72
2023-12-09T11:40:01.686Z,6.75
2023-12-09T11:45:08.046Z,6.72
2023-12-09T11:50:14.583Z,6.75
2023-12-09T11:55:24.201Z,6.72
2023-12-09T12:00:33.136Z,6.79
2023-12-09T12:05:43.645Z,6.78
2023-12-09T12:10:53.154Z,6.82
2023-12-09T12:16:05.623Z,6.83
2023-12-09T12:21:12.015Z,6.83
2023-12-09T12:26:21.256Z,6.76
2023-12-09T12:31:30.439Z,6.87
2023-12-09T12:36:45.671Z,6.90
2023-12-09T12:42:00.792Z,6.90
2023-12-09T12:47:21.420Z,6.89
2023-12-09T12:52:33.247Z,6.91
2023-12-09T12:57:40.042Z,6.85
2023-12-09T13:02:43.540Z,6.78
2023-12-09T13:07:50.769Z,6.79
2023-12-09T13:12:57.250Z,6.78
2023-12-09T13:18:04.608Z,6.77
2023-12-09T13:23:11.404Z,6.79
2023-12-09T13:28:20.526Z,6.83
2023-12-09T13:33:28.960Z,6.83
2023-12-09T13:38:37.015Z,6.84
2023-12-09T13:43:47.558Z,6.84
2023-12-09T13:48:54.836Z,6.85
2023-12-09T13:54:09.458Z,6.85
2023-12-09T13:59:19.565Z,6.86
2023-12-09T14:04:27.308Z,6.82
2023-12-09T14:09:33.866Z,6.85
2023-12-09T14:14:43.608Z,6.78
2023-12-09T14:19:51.714Z,6.81
2023-12-09T14:24:59.120Z,6.84
2023-12-09T14:30:10.893Z,6.91
2023-12-09T14:35:22.258Z,6.81
2023-12-09T14:40:32.644Z,6.91
2023-12-09T14:45:46.025Z,6.89
2023-12-09T14:51:01.373Z,6.90
2023-12-09T14:56:14.146Z,6.88
2023-12-09T15:01:19.917Z,6.87
2023-12-09T15:06:34.124Z,6.74
2023-12-09T15:11:48.712Z,6.87
2023-12-09T15:17:02.484Z,6.84
2023-12-09T15:22:18.760Z,6.84
2023-12-09T15:27:28.305Z,6.81
2023-12-09T15:32:34.832Z,6.83
2023-12-09T15:37:44.122Z,6.81
2023-12-09T15:42:51.994Z,6.82
2023-12-09T15:48:05.936Z,6.81
2023-12-09T15:53:18.340Z,6.68
2023-12-09T15:58:29.784Z,6.85
2023-12-09T16:03:35.573Z,6.85
2023-12-09T16:08:40.112Z,6.84
2023-12-09T16:13:42.815Z,6.85
2023-12-09T16:18:47.049Z,6.89
2023-12-09T16:23:50.212Z,6.88
2023-12-09T16:28:54.069Z,6.91
2023-12-09T16:33:57.167Z,6.92
2023-12-09T16:39:01.045Z,6.87
2023-12-09T16:44:04.654Z,6.85
2023-12-09T16:49:09.504Z,6.87
2023-12-09T16:54:13.183Z,6.90
2023-12-09T16:59:18.179Z,6.87
2023-12-09T17:04:21.225Z,6.91
2023-12-09T17:09:24.561Z,6.91
2023-12-09T17:14:27.329Z,6.95
2023-12-09T17:19:31.444Z,6.99
2023-12-09T17:24:34.888Z,6.96
2023-12-09T17:29:37.605Z,6.94
2023-12-09T17:34:41.460Z,6.91
2023-12-09T17:39:44.783Z,6.90
2023-12-09T17:44:48.117Z,6.90
2023-12-09T17:49:51.769Z,6.89
2023-12-09T17:54:54.923Z,6.90
2023-12-09T17:59:57.633Z,6.91
2023-12-09T18:05:00.514Z,6.83
2023-12-09T18:10:04.193Z,6.73
2023-12-09T18:15:08.540Z,6.73
2023-12-09T18:20:12.590Z,6.78
2023-12-09T18:25:16.069Z,6.82
2023-12-09T18:30:22.141Z,6.89
2023-12-09T18:35:25.801Z,6.96
2023-12-09T18:40:29.045Z,6.95
2023-12-09T18:45:32.290Z,7.02
2023-12-09T18:50:34.977Z,7.01
2023-12-09T18:55:38.634Z,7.03
2023-12-09T19:00:41.427Z,7.04
2023-12-09T19:05:44.351Z,7.08
2023-12-09T19:10:48.202Z,7.10
2023-12-09T19:15:51.437Z,7.04
2023-12-09T19:20:55.003Z,7.06
2023-12-09T19:25:58.367Z,7.12
2023-12-09T19:31:01.050Z,7.04
2023-12-09T19:36:04.509Z,7.00
2023-12-09T19:41:08.054Z,7.01
2023-12-09T19:46:11.148Z,7.06
2023-12-09T19:51:15.376Z,6.98
2023-12-09T19:56:18.389Z,6.90
2023-12-09T20:01:22.241Z,6.99
2023-12-09T20:06:26.856Z,7.02
2023-12-09T20:11:31.573Z,6.96
2023-12-09T20:16:35.175Z,6.95
2023-12-09T20:21:38.430Z,6.94
2023-12-09T20:26:41.145Z,6.95
2023-12-09T20:31:46.300Z,6.94
2023-12-09T20:36:50.686Z,6.95
2023-12-09T20:41:53.312Z,6.91
2023-12-09T20:46:57.198Z,6.93
2023-12-09T20:52:00.523Z,6.88
2023-12-09T20:57:04.125Z,6.90
2023-12-09T21:02:07.803Z,6.94
2023-12-09T21:07:11.371Z,6.99
2023-12-09T21:12:15.077Z,6.96
2023-12-09T21:17:19.127Z,6.95
2023-12-09T21:22:23.488Z,6.95
2023-12-09T21:27:26.017Z,6.85
2023-12-09T21:32:29.893Z,6.81
2023-12-09T21:37:33.875Z,6.69
2023-12-09T21:42:37.716Z,6.63
2023-12-09T21:47:42.719Z,6.63
2023-12-09T21:52:46.624Z,6.60
2023-12-09T21:57:50.670Z,6.64
2023-12-09T22:02:54.794Z,6.63
2023-12-09T22:07:58.370Z,6.50
2023-12-09T22:13:01.476Z,6.43
2023-12-09T22:18:05.161Z,6.45
2023-12-09T22:23:08.484Z,6.41
2023-12-09T22:28:12.327Z,6.36
2023-12-09T22:33:15.941Z,6.33
2023-12-09T22:38:20.275Z,6.24
2023-12-09T22:43:23.786Z,6.22
2023-12-09T22:48:27.767Z,6.15
2023-12-09T22:53:30.561Z,6.06
2023-12-09T22:58:34.229Z,5.95
2023-12-09T23:03:37.382Z,5.83
2023-12-09T23:08:40.996Z,5.68
2023-12-09T23:13:44.439Z,5.39
2023-12-09T23:18:47.760Z,5.07
2023-12-09T23:23:51.417Z,4.82
2023-12-09T23:28:54.509Z,4.57
2023-12-09T23:33:58.138Z,4.32
2023-12-09T23:39:01.362Z,4.15
2023-12-09T23:44:04.414Z,4.01
2023-12-09T23:49:08.435Z,3.86
2023-12-09T23:54:12.046Z,3.73
2023-12-09T23:59:15.434Z,3.63
